sensor_id;sensor_type;location;lat;lon;timestamp;temperature;humidity
17200;DHT22;8716;52.268;20.968;2023-05-01T00:01:27;7.30;99.90
17200;DHT22;8716;52.268;20.968;2023-05-01T00:03:57;7.20;99.90
17200;DHT22;8716;52.268;20.968;2023-05-01T00:06:27;7.20;99.90
17200;DHT22;8716;52.268;20.968;2023-05-01T00:08:56;7.10;99.90
17200;DHT22;8716;52.268;20.968;2023-05-01T00:11:26;7.10;99.90
17200;DHT22;8716;52.268;20.968;2023-05-01T00:13:54;7.00;99.90
17200;DHT22;8716;52.268;20.968;2023-05-01T00:16:22;7.00;99.90
17200;DHT22;8716;52.268;20.968;2023-05-01T00:18:52;7.00;99.90
17200;DHT22;8716;52.268;20.968;2023-05-01T00:21:24;6.90;99.90
17200;DHT22;8716;52.268;20.968;2023-05-01T00:23:55;6.90;99.90
17200;DHT22;8716;52.268;20.968;2023-05-01T00:26:23;6.80;99.90
17200;DHT22;8716;52.268;20.968;2023-05-01T00:29:02;6.80;99.90
17200;DHT22;8716;52.268;20.968;2023-05-01T00:31:30;6.80;99.90
17200;DHT22;8716;52.268;20.968;2023-05-01T00:33:59;6.80;99.90
17200;DHT22;8716;52.268;20.968;2023-05-01T00:36:27;6.70;99.90
17200;DHT22;8716;52.268;20.968;2023-05-01T00:38:57;6.70;99.90
17200;DHT22;8716;52.268;20.968;2023-05-01T00:41:28;6.70;99.90
17200;DHT22;8716;52.268;20.968;2023-05-01T00:43:58;6.60;99.90
17200;DHT22;8716;52.268;20.968;2023-05-01T00:46:30;6.60;99.90
17200;DHT22;8716;52.268;20.968;2023-05-01T00:49:01;6.60;99.90
17200;DHT22;8716;52.268;20.968;2023-05-01T00:51:30;6.60;99.90
17200;DHT22;8716;52.268;20.968;2023-05-01T00:54:00;6.50;99.90
17200;DHT22;8716;52.268;20.968;2023-05-01T00:56:30;6.50;99.90
17200;DHT22;8716;52.268;20.968;2023-05-01T00:58:58;6.40;99.90
17200;DHT22;8716;52.268;20.968;2023-05-01T01:01:27;6.40;99.90
17200;DHT22;8716;52.268;20.968;2023-05-01T01:03:56;6.40;99.90
17200;DHT22;8716;52.268;20.968;2023-05-01T01:06:32;6.40;99.90
17200;DHT22;8716;52.268;20.968;2023-05-01T01:09:12;6.30;99.90
17200;DHT22;8716;52.268;20.968;2023-05-01T01:11:52;6.30;99.90
17200;DHT22;8716;52.268;20.968;2023-05-01T01:14:29;6.30;99.90
17200;DHT22;8716;52.268;20.968;2023-05-01T01:17:03;6.20;99.90
17200;DHT22;8716;52.268;20.968;2023-05-01T01:20:12;6.20;99.90
17200;DHT22;8716;52.268;20.968;2023-05-01T01:22:49;6.20;99.90
17200;DHT22;8716;52.268;20.968;2023-05-01T01:25:53;6.20;99.90
17200;DHT22;8716;52.268;20.968;2023-05-01T01:29:02;6.10;99.90
17200;DHT22;8716;52.268;20.968;2023-05-01T01:32:08;6.10;99.90
17200;DHT22;8716;52.268;20.968;2023-05-01T01:34:43;6.00;99.90
17200;DHT22;8716;52.268;20.968;2023-05-01T01:37:19;6.00;99.90
17200;DHT22;8716;52.268;20.968;2023-05-01T01:39:52;6.00;99.90
17200;DHT22;8716;52.268;20.968;2023-05-01T01:42:25;6.00;99.90
17200;DHT22;8716;52.268;20.968;2023-05-01T01:44:59;6.00;99.90
17200;DHT22;8716;52.268;20.968;2023-05-01T01:47:30;6.00;99.90
17200;DHT22;8716;52.268;20.968;2023-05-01T01:50:04;5.90;99.90
17200;DHT22;8716;52.268;20.968;2023-05-01T01:52:35;5.90;99.90
17200;DHT22;8716;52.268;20.968;2023-05-01T01:55:10;5.90;99.90
17200;DHT22;8716;52.268;20.968;2023-05-01T01:57:40;5.90;99.90
17200;DHT22;8716;52.268;20.968;2023-05-01T02:00:11;5.80;99.90
17200;DHT22;8716;52.268;20.968;2023-05-01T02:02:47;5.80;99.90
17200;DHT22;8716;52.268;20.968;2023-05-01T02:05:19;5.80;99.90
17200;DHT22;8716;52.268;20.968;2023-05-01T02:07:52;5.80;99.90
17200;DHT22;8716;52.268;20.968;2023-05-01T02:10:24;5.70;99.90
17200;DHT22;8716;52.268;20.968;2023-05-01T02:12:57;5.70;99.90
17200;DHT22;8716;52.268;20.968;2023-05-01T02:15:31;5.70;99.90
17200;DHT22;8716;52.268;20.968;2023-05-01T02:18:04;5.70;99.90
17200;DHT22;8716;52.268;20.968;2023-05-01T02:20:36;5.60;99.90
17200;DHT22;8716;52.268;20.968;2023-05-01T02:23:06;5.70;99.90
17200;DHT22;8716;52.268;20.968;2023-05-01T02:25:37;5.60;99.90
17200;DHT22;8716;52.268;20.968;2023-05-01T02:28:13;5.60;99.90
17200;DHT22;8716;52.268;20.968;2023-05-01T02:30:42;5.60;99.90
17200;DHT22;8716;52.268;20.968;2023-05-01T02:33:13;5.60;99.90
17200;DHT22;8716;52.268;20.968;2023-05-01T02:35:45;5.60;99.90
17200;DHT22;8716;52.268;20.968;2023-05-01T02:38:16;5.50;99.90
17200;DHT22;8716;52.268;20.968;2023-05-01T02:40:49;5.50;99.90
17200;DHT22;8716;52.268;20.968;2023-05-01T02:43:20;5.50;99.90
17200;DHT22;8716;52.268;20.968;2023-05-01T02:45:50;5.50;99.90
17200;DHT22;8716;52.268;20.968;2023-05-01T02:48:26;5.50;99.90
17200;DHT22;8716;52.268;20.968;2023-05-01T02:51:11;5.50;99.90
17200;DHT22;8716;52.268;20.968;2023-05-01T02:53:42;5.50;99.90
17200;DHT22;8716;52.268;20.968;2023-05-01T02:56:18;5.40;99.90
17200;DHT22;8716;52.268;20.968;2023-05-01T02:58:47;5.50;99.90
17200;DHT22;8716;52.268;20.968;2023-05-01T03:01:16;5.50;99.90
17200;DHT22;8716;52.268;20.968;2023-05-01T03:03:44;5.50;99.90
17200;DHT22;8716;52.268;20.968;2023-05-01T03:06:14;5.50;99.90
17200;DHT22;8716;52.268;20.968;2023-05-01T03:08:42;5.40;99.90
17200;DHT22;8716;52.268;20.968;2023-05-01T03:11:14;5.40;99.90
17200;DHT22;8716;52.268;20.968;2023-05-01T03:13:42;5.40;99.90
17200;DHT22;8716;52.268;20.968;2023-05-01T03:16:12;5.40;99.90
17200;DHT22;8716;52.268;20.968;2023-05-01T03:18:40;5.40;99.90
17200;DHT22;8716;52.268;20.968;2023-05-01T03:21:08;5.40;99.90
17200;DHT22;8716;52.268;20.968;2023-05-01T03:23:39;5.40;99.90
17200;DHT22;8716;52.268;20.968;2023-05-01T03:26:08;5.40;99.90
17200;DHT22;8716;52.268;20.968;2023-05-01T03:28:36;5.50;99.90
17200;DHT22;8716;52.268;20.968;2023-05-01T03:31:05;5.40;99.90
17200;DHT22;8716;52.268;20.968;2023-05-01T03:33:33;5.40;99.90
17200;DHT22;8716;52.268;20.968;2023-05-01T03:36:05;5.50;99.90
17200;DHT22;8716;52.268;20.968;2023-05-01T03:38:33;5.40;99.90
17200;DHT22;8716;52.268;20.968;2023-05-01T03:41:12;5.40;99.90
17200;DHT22;8716;52.268;20.968;2023-05-01T03:44:18;5.40;99.90
17200;DHT22;8716;52.268;20.968;2023-05-01T03:46:54;5.50;99.90
17200;DHT22;8716;52.268;20.968;2023-05-01T03:49:26;5.50;99.90
17200;DHT22;8716;52.268;20.968;2023-05-01T03:51:55;5.60;99.90
17200;DHT22;8716;52.268;20.968;2023-05-01T03:54:23;5.50;99.90
17200;DHT22;8716;52.268;20.968;2023-05-01T03:57:08;5.60;99.90
17200;DHT22;8716;52.268;20.968;2023-05-01T03:59:36;5.70;99.90
17200;DHT22;8716;52.268;20.968;2023-05-01T04:02:07;5.70;99.90
17200;DHT22;8716;52.268;20.968;2023-05-01T04:04:36;5.70;99.90
17200;DHT22;8716;52.268;20.968;2023-05-01T04:07:07;5.70;99.90
17200;DHT22;8716;52.268;20.968;2023-05-01T04:09:35;5.80;99.90
17200;DHT22;8716;52.268;20.968;2023-05-01T04:12:05;5.90;99.90
17200;DHT22;8716;52.268;20.968;2023-05-01T04:14:33;6.00;99.90
17200;DHT22;8716;52.268;20.968;2023-05-01T04:17:04;6.10;99.90
17200;DHT22;8716;52.268;20.968;2023-05-01T04:19:35;6.10;99.90
17200;DHT22;8716;52.268;20.968;2023-05-01T04:22:03;6.20;99.90
17200;DHT22;8716;52.268;20.968;2023-05-01T04:24:34;6.30;99.90
17200;DHT22;8716;52.268;20.968;2023-05-01T04:27:02;6.40;99.90
17200;DHT22;8716;52.268;20.968;2023-05-01T04:29:36;6.50;99.90
17200;DHT22;8716;52.268;20.968;2023-05-01T04:32:04;6.60;99.90
17200;DHT22;8716;52.268;20.968;2023-05-01T04:34:33;6.60;99.90
17200;DHT22;8716;52.268;20.968;2023-05-01T04:37:01;6.70;99.90
17200;DHT22;8716;52.268;20.968;2023-05-01T04:39:29;6.80;99.90
17200;DHT22;8716;52.268;20.968;2023-05-01T04:42:01;6.90;99.90
17200;DHT22;8716;52.268;20.968;2023-05-01T04:44:29;7.00;99.90
17200;DHT22;8716;52.268;20.968;2023-05-01T04:47:02;7.10;99.90
17200;DHT22;8716;52.268;20.968;2023-05-01T04:49:41;7.20;99.90
17200;DHT22;8716;52.268;20.968;2023-05-01T04:52:09;7.40;99.90
17200;DHT22;8716;52.268;20.968;2023-05-01T04:54:49;7.60;99.90
17200;DHT22;8716;52.268;20.968;2023-05-01T04:57:17;7.90;99.90
17200;DHT22;8716;52.268;20.968;2023-05-01T04:59:46;8.30;99.90
17200;DHT22;8716;52.268;20.968;2023-05-01T05:02:16;8.80;99.90
17200;DHT22;8716;52.268;20.968;2023-05-01T05:04:46;9.40;99.90
17200;DHT22;8716;52.268;20.968;2023-05-01T05:07:16;10.10;99.90
17200;DHT22;8716;52.268;20.968;2023-05-01T05:10:20;10.80;99.90
17200;DHT22;8716;52.268;20.968;2023-05-01T05:13:03;11.60;99.90
17200;DHT22;8716;52.268;20.968;2023-05-01T05:15:32;12.50;99.90
17200;DHT22;8716;52.268;20.968;2023-05-01T05:18:05;13.50;99.90
17200;DHT22;8716;52.268;20.968;2023-05-01T05:20:44;14.60;99.90
17200;DHT22;8716;52.268;20.968;2023-05-01T05:23:16;15.40;99.90
17200;DHT22;8716;52.268;20.968;2023-05-01T05:25:44;16.10;97.80
17200;DHT22;8716;52.268;20.968;2023-05-01T05:28:17;17.10;95.80
17200;DHT22;8716;52.268;20.968;2023-05-01T05:30:50;17.90;93.30
17200;DHT22;8716;52.268;20.968;2023-05-01T05:33:22;18.70;90.50
17200;DHT22;8716;52.268;20.968;2023-05-01T05:35:53;19.20;86.00
17200;DHT22;8716;52.268;20.968;2023-05-01T05:38:25;19.90;82.50
17200;DHT22;8716;52.268;20.968;2023-05-01T05:40:56;20.70;76.00
17200;DHT22;8716;52.268;20.968;2023-05-01T05:43:25;21.50;71.40
17200;DHT22;8716;52.268;20.968;2023-05-01T05:45:59;21.70;67.10
17200;DHT22;8716;52.268;20.968;2023-05-01T05:48:31;22.10;61.70
17200;DHT22;8716;52.268;20.968;2023-05-01T05:51:00;22.50;60.30
17200;DHT22;8716;52.268;20.968;2023-05-01T05:53:28;22.60;58.60
17200;DHT22;8716;52.268;20.968;2023-05-01T05:56:00;22.60;57.70
17200;DHT22;8716;52.268;20.968;2023-05-01T05:58:31;22.50;56.80
17200;DHT22;8716;52.268;20.968;2023-05-01T06:01:01;22.60;56.70
17200;DHT22;8716;52.268;20.968;2023-05-01T06:03:29;23.40;56.90
17200;DHT22;8716;52.268;20.968;2023-05-01T06:06:01;23.90;55.10
17200;DHT22;8716;52.268;20.968;2023-05-01T06:08:33;23.90;53.10
17200;DHT22;8716;52.268;20.968;2023-05-01T06:11:09;23.90;53.10
17200;DHT22;8716;52.268;20.968;2023-05-01T06:13:37;24.10;52.70
17200;DHT22;8716;52.268;20.968;2023-05-01T06:16:06;24.70;52.40
17200;DHT22;8716;52.268;20.968;2023-05-01T06:18:35;24.80;51.90
17200;DHT22;8716;52.268;20.968;2023-05-01T06:21:05;25.20;50.90
17200;DHT22;8716;52.268;20.968;2023-05-01T06:23:36;25.10;51.10
17200;DHT22;8716;52.268;20.968;2023-05-01T06:26:28;25.10;50.10
17200;DHT22;8716;52.268;20.968;2023-05-01T06:28:57;25.30;50.70
17200;DHT22;8716;52.268;20.968;2023-05-01T06:31:26;26.00;49.70
17200;DHT22;8716;52.268;20.968;2023-05-01T06:33:56;26.50;48.10
17200;DHT22;8716;52.268;20.968;2023-05-01T06:36:32;26.60;45.80
17200;DHT22;8716;52.268;20.968;2023-05-01T06:39:02;26.80;45.70
17200;DHT22;8716;52.268;20.968;2023-05-01T06:41:32;26.80;45.50
17200;DHT22;8716;52.268;20.968;2023-05-01T06:44:04;27.10;44.30
17200;DHT22;8716;52.268;20.968;2023-05-01T06:46:32;27.30;44.00
17200;DHT22;8716;52.268;20.968;2023-05-01T06:49:00;27.60;44.30
17200;DHT22;8716;52.268;20.968;2023-05-01T06:51:29;28.10;43.70
17200;DHT22;8716;52.268;20.968;2023-05-01T06:54:00;28.30;43.60
17200;DHT22;8716;52.268;20.968;2023-05-01T06:56:29;28.60;43.70
17200;DHT22;8716;52.268;20.968;2023-05-01T06:58:58;28.70;43.80
17200;DHT22;8716;52.268;20.968;2023-05-01T07:01:28;28.80;43.40
17200;DHT22;8716;52.268;20.968;2023-05-01T07:03:59;28.30;43.20
17200;DHT22;8716;52.268;20.968;2023-05-01T07:06:28;28.20;43.30
17200;DHT22;8716;52.268;20.968;2023-05-01T07:08:57;28.70;43.20
17200;DHT22;8716;52.268;20.968;2023-05-01T07:11:26;28.90;43.00
17200;DHT22;8716;52.268;20.968;2023-05-01T07:13:55;28.70;42.30
17200;DHT22;8716;52.268;20.968;2023-05-01T07:16:23;28.90;43.50
17200;DHT22;8716;52.268;20.968;2023-05-01T07:18:52;29.00;42.10
17200;DHT22;8716;52.268;20.968;2023-05-01T07:21:20;29.30;42.10
17200;DHT22;8716;52.268;20.968;2023-05-01T07:23:48;30.00;42.10
17200;DHT22;8716;52.268;20.968;2023-05-01T07:26:19;30.00;41.70
17200;DHT22;8716;52.268;20.968;2023-05-01T07:28:48;30.30;41.30
17200;DHT22;8716;52.268;20.968;2023-05-01T07:31:19;30.40;41.20
17200;DHT22;8716;52.268;20.968;2023-05-01T07:33:48;30.40;40.20
17200;DHT22;8716;52.268;20.968;2023-05-01T07:36:19;30.30;40.60
17200;DHT22;8716;52.268;20.968;2023-05-01T07:38:48;30.20;40.50
17200;DHT22;8716;52.268;20.968;2023-05-01T07:41:16;30.70;41.00
17200;DHT22;8716;52.268;20.968;2023-05-01T07:43:49;31.40;40.30
17200;DHT22;8716;52.268;20.968;2023-05-01T07:46:17;31.10;39.50
17200;DHT22;8716;52.268;20.968;2023-05-01T07:48:45;31.10;40.30
17200;DHT22;8716;52.268;20.968;2023-05-01T07:51:14;31.50;40.10
17200;DHT22;8716;52.268;20.968;2023-05-01T07:53:43;32.00;40.00
17200;DHT22;8716;52.268;20.968;2023-05-01T07:56:13;32.50;39.40
17200;DHT22;8716;52.268;20.968;2023-05-01T07:58:44;32.40;39.50
17200;DHT22;8716;52.268;20.968;2023-05-01T08:01:14;32.60;38.80
17200;DHT22;8716;52.268;20.968;2023-05-01T08:03:42;32.90;38.90
17200;DHT22;8716;52.268;20.968;2023-05-01T08:06:10;33.30;38.90
17200;DHT22;8716;52.268;20.968;2023-05-01T08:08:39;33.10;38.20
17200;DHT22;8716;52.268;20.968;2023-05-01T08:11:07;32.80;38.10
17200;DHT22;8716;52.268;20.968;2023-05-01T08:13:36;32.60;38.50
17200;DHT22;8716;52.268;20.968;2023-05-01T08:16:04;32.80;38.40
17200;DHT22;8716;52.268;20.968;2023-05-01T08:18:36;33.00;38.50
17200;DHT22;8716;52.268;20.968;2023-05-01T08:21:05;33.00;38.20
17200;DHT22;8716;52.268;20.968;2023-05-01T08:23:33;32.60;37.60
17200;DHT22;8716;52.268;20.968;2023-05-01T08:26:01;31.90;38.00
17200;DHT22;8716;52.268;20.968;2023-05-01T08:28:30;31.70;39.80
17200;DHT22;8716;52.268;20.968;2023-05-01T08:30:59;32.00;38.50
17200;DHT22;8716;52.268;20.968;2023-05-01T08:33:28;32.20;38.70
17200;DHT22;8716;52.268;20.968;2023-05-01T08:35:58;32.50;38.30
17200;DHT22;8716;52.268;20.968;2023-05-01T08:38:26;32.90;38.70
17200;DHT22;8716;52.268;20.968;2023-05-01T08:40:54;33.50;38.00
17200;DHT22;8716;52.268;20.968;2023-05-01T08:43:26;34.20;38.10
17200;DHT22;8716;52.268;20.968;2023-05-01T08:45:55;34.50;37.50
17200;DHT22;8716;52.268;20.968;2023-05-01T08:48:28;34.40;38.10
17200;DHT22;8716;52.268;20.968;2023-05-01T08:50:57;34.30;36.90
17200;DHT22;8716;52.268;20.968;2023-05-01T08:53:31;33.60;38.10
17200;DHT22;8716;52.268;20.968;2023-05-01T08:56:00;33.60;37.70
17200;DHT22;8716;52.268;20.968;2023-05-01T08:58:32;34.00;37.00
17200;DHT22;8716;52.268;20.968;2023-05-01T09:01:02;34.50;36.70
17200;DHT22;8716;52.268;20.968;2023-05-01T09:03:31;34.60;36.40
17200;DHT22;8716;52.268;20.968;2023-05-01T09:06:01;34.70;36.30
17200;DHT22;8716;52.268;20.968;2023-05-01T09:08:30;34.60;36.30
17200;DHT22;8716;52.268;20.968;2023-05-01T09:10:58;34.70;36.70
17200;DHT22;8716;52.268;20.968;2023-05-01T09:13:28;34.70;36.60
17200;DHT22;8716;52.268;20.968;2023-05-01T09:15:57;35.00;36.50
17200;DHT22;8716;52.268;20.968;2023-05-01T09:18:26;35.20;37.10
17200;DHT22;8716;52.268;20.968;2023-05-01T09:20:54;35.50;36.70
17200;DHT22;8716;52.268;20.968;2023-05-01T09:23:24;35.30;35.30
17200;DHT22;8716;52.268;20.968;2023-05-01T09:25:53;34.90;35.20
17200;DHT22;8716;52.268;20.968;2023-05-01T09:28:40;35.20;36.10
17200;DHT22;8716;52.268;20.968;2023-05-01T09:31:21;35.70;34.50
17200;DHT22;8716;52.268;20.968;2023-05-01T09:33:51;35.90;33.50
17200;DHT22;8716;52.268;20.968;2023-05-01T09:36:22;35.20;34.30
17200;DHT22;8716;52.268;20.968;2023-05-01T09:38:52;34.80;34.80
17200;DHT22;8716;52.268;20.968;2023-05-01T09:41:20;34.60;35.00
17200;DHT22;8716;52.268;20.968;2023-05-01T09:43:49;34.60;34.60
17200;DHT22;8716;52.268;20.968;2023-05-01T09:46:18;34.90;35.40
17200;DHT22;8716;52.268;20.968;2023-05-01T09:48:54;35.30;34.60
17200;DHT22;8716;52.268;20.968;2023-05-01T09:51:25;35.50;34.40
17200;DHT22;8716;52.268;20.968;2023-05-01T09:53:56;35.60;35.40
17200;DHT22;8716;52.268;20.968;2023-05-01T09:56:25;35.70;34.90
17200;DHT22;8716;52.268;20.968;2023-05-01T09:58:56;35.80;34.80
17200;DHT22;8716;52.268;20.968;2023-05-01T10:01:37;35.90;35.40
17200;DHT22;8716;52.268;20.968;2023-05-01T10:04:06;36.40;34.40
17200;DHT22;8716;52.268;20.968;2023-05-01T10:06:36;36.40;32.20
17200;DHT22;8716;52.268;20.968;2023-05-01T10:09:07;35.60;32.10
17200;DHT22;8716;52.268;20.968;2023-05-01T10:11:49;34.80;32.90
17200;DHT22;8716;52.268;20.968;2023-05-01T10:14:22;33.60;34.20
17200;DHT22;8716;52.268;20.968;2023-05-01T10:16:53;33.50;33.80
17200;DHT22;8716;52.268;20.968;2023-05-01T10:19:24;33.40;34.30
17200;DHT22;8716;52.268;20.968;2023-05-01T10:21:52;33.50;35.00
17200;DHT22;8716;52.268;20.968;2023-05-01T10:24:22;33.70;33.80
17200;DHT22;8716;52.268;20.968;2023-05-01T10:26:50;33.40;32.80
17200;DHT22;8716;52.268;20.968;2023-05-01T10:29:20;32.90;34.20
17200;DHT22;8716;52.268;20.968;2023-05-01T10:31:50;33.00;35.00
17200;DHT22;8716;52.268;20.968;2023-05-01T10:34:20;33.10;35.30
17200;DHT22;8716;52.268;20.968;2023-05-01T10:36:59;33.20;35.70
17200;DHT22;8716;52.268;20.968;2023-05-01T10:39:33;33.00;34.30
17200;DHT22;8716;52.268;20.968;2023-05-01T10:42:06;32.60;34.80
17200;DHT22;8716;52.268;20.968;2023-05-01T10:44:37;32.70;36.40
17200;DHT22;8716;52.268;20.968;2023-05-01T10:47:44;32.90;36.80
17200;DHT22;8716;52.268;20.968;2023-05-01T10:50:14;32.80;35.80
17200;DHT22;8716;52.268;20.968;2023-05-01T10:53:16;32.30;36.10
17200;DHT22;8716;52.268;20.968;2023-05-01T10:55:47;31.60;35.80
17200;DHT22;8716;52.268;20.968;2023-05-01T10:58:56;31.20;37.90
17200;DHT22;8716;52.268;20.968;2023-05-01T11:01:31;31.20;38.00
17200;DHT22;8716;52.268;20.968;2023-05-01T11:04:01;31.00;37.70
17200;DHT22;8716;52.268;20.968;2023-05-01T11:06:30;30.80;38.60
17200;DHT22;8716;52.268;20.968;2023-05-01T11:09:34;30.50;38.60
17200;DHT22;8716;52.268;20.968;2023-05-01T11:11:51;30.20;38.30
17200;DHT22;8716;52.268;20.968;2023-05-01T11:14:20;29.20;38.40
17200;DHT22;8716;52.268;20.968;2023-05-01T11:16:48;28.40;40.90
17200;DHT22;8716;52.268;20.968;2023-05-01T11:22:15;28.00;40.10
17200;DHT22;8716;52.268;20.968;2023-05-01T11:24:44;27.90;40.50
17200;DHT22;8716;52.268;20.968;2023-05-01T11:27:15;27.90;39.70
17200;DHT22;8716;52.268;20.968;2023-05-01T11:29:44;27.20;39.70
17200;DHT22;8716;52.268;20.968;2023-05-01T11:32:19;26.90;41.40
17200;DHT22;8716;52.268;20.968;2023-05-01T11:34:49;26.40;40.30
17200;DHT22;8716;52.268;20.968;2023-05-01T11:37:18;26.10;41.80
17200;DHT22;8716;52.268;20.968;2023-05-01T11:39:50;25.90;40.70
17200;DHT22;8716;52.268;20.968;2023-05-01T11:42:21;25.60;41.60
17200;DHT22;8716;52.268;20.968;2023-05-01T11:45:06;25.60;43.00
17200;DHT22;8716;52.268;20.968;2023-05-01T11:47:36;25.20;42.50
17200;DHT22;8716;52.268;20.968;2023-05-01T11:50:06;25.20;42.90
17200;DHT22;8716;52.268;20.968;2023-05-01T11:52:41;25.10;41.10
17200;DHT22;8716;52.268;20.968;2023-05-01T11:55:10;24.70;41.10
17200;DHT22;8716;52.268;20.968;2023-05-01T11:57:47;24.10;42.60
17200;DHT22;8716;52.268;20.968;2023-05-01T12:00:25;24.00;44.40
17200;DHT22;8716;52.268;20.968;2023-05-01T12:02:59;24.20;44.00
17200;DHT22;8716;52.268;20.968;2023-05-01T12:05:29;24.30;41.70
17200;DHT22;8716;52.268;20.968;2023-05-01T12:08:12;24.00;42.30
17200;DHT22;8716;52.268;20.968;2023-05-01T12:10:42;23.70;41.80
17200;DHT22;8716;52.268;20.968;2023-05-01T12:13:14;23.50;42.90
17200;DHT22;8716;52.268;20.968;2023-05-01T12:15:45;23.10;43.40
17200;DHT22;8716;52.268;20.968;2023-05-01T12:18:14;22.80;43.30
17200;DHT22;8716;52.268;20.968;2023-05-01T12:20:44;22.70;43.50
17200;DHT22;8716;52.268;20.968;2023-05-01T12:23:14;22.80;44.80
17200;DHT22;8716;52.268;20.968;2023-05-01T12:25:44;22.90;45.10
17200;DHT22;8716;52.268;20.968;2023-05-01T12:28:15;22.90;45.00
17200;DHT22;8716;52.268;20.968;2023-05-01T12:30:46;23.00;45.30
17200;DHT22;8716;52.268;20.968;2023-05-01T12:33:16;22.80;44.90
17200;DHT22;8716;52.268;20.968;2023-05-01T12:35:48;22.60;45.10
17200;DHT22;8716;52.268;20.968;2023-05-01T12:38:18;22.60;46.50
17200;DHT22;8716;52.268;20.968;2023-05-01T12:40:51;22.50;45.40
17200;DHT22;8716;52.268;20.968;2023-05-01T12:43:29;22.20;44.60
17200;DHT22;8716;52.268;20.968;2023-05-01T12:45:57;21.80;45.30
17200;DHT22;8716;52.268;20.968;2023-05-01T12:48:26;21.70;46.40
17200;DHT22;8716;52.268;20.968;2023-05-01T12:50:54;21.70;46.90
17200;DHT22;8716;52.268;20.968;2023-05-01T12:53:25;21.90;47.40
17200;DHT22;8716;52.268;20.968;2023-05-01T12:55:55;22.00;45.90
17200;DHT22;8716;52.268;20.968;2023-05-01T12:58:34;22.00;46.30
17200;DHT22;8716;52.268;20.968;2023-05-01T13:01:03;22.10;47.00
17200;DHT22;8716;52.268;20.968;2023-05-01T13:03:32;22.00;45.70
17200;DHT22;8716;52.268;20.968;2023-05-01T13:06:06;21.90;45.10
17200;DHT22;8716;52.268;20.968;2023-05-01T13:08:36;21.70;45.40
17200;DHT22;8716;52.268;20.968;2023-05-01T13:11:09;21.70;45.40
17200;DHT22;8716;52.268;20.968;2023-05-01T13:13:41;21.60;45.30
17200;DHT22;8716;52.268;20.968;2023-05-01T13:16:11;21.60;45.60
17200;DHT22;8716;52.268;20.968;2023-05-01T13:18:44;21.50;46.20
17200;DHT22;8716;52.268;20.968;2023-05-01T13:21:14;21.40;46.70
17200;DHT22;8716;52.268;20.968;2023-05-01T13:23:51;21.30;47.40
17200;DHT22;8716;52.268;20.968;2023-05-01T13:26:24;21.20;47.10
17200;DHT22;8716;52.268;20.968;2023-05-01T13:28:55;21.10;47.00
17200;DHT22;8716;52.268;20.968;2023-05-01T13:31:28;21.00;45.60
17200;DHT22;8716;52.268;20.968;2023-05-01T13:33:57;20.60;45.20
17200;DHT22;8716;52.268;20.968;2023-05-01T13:36:30;20.30;46.50
17200;DHT22;8716;52.268;20.968;2023-05-01T13:38:59;20.00;47.30
17200;DHT22;8716;52.268;20.968;2023-05-01T13:41:28;19.90;46.80
17200;DHT22;8716;52.268;20.968;2023-05-01T13:43:58;19.70;46.40
17200;DHT22;8716;52.268;20.968;2023-05-01T13:46:27;19.70;47.50
17200;DHT22;8716;52.268;20.968;2023-05-01T13:48:57;19.80;47.80
17200;DHT22;8716;52.268;20.968;2023-05-01T13:51:26;19.80;47.40
17200;DHT22;8716;52.268;20.968;2023-05-01T13:53:55;19.80;47.40
17200;DHT22;8716;52.268;20.968;2023-05-01T13:56:23;19.90;47.80
17200;DHT22;8716;52.268;20.968;2023-05-01T13:58:51;20.00;47.50
17200;DHT22;8716;52.268;20.968;2023-05-01T14:01:21;20.00;47.80
17200;DHT22;8716;52.268;20.968;2023-05-01T14:03:49;20.00;47.10
17200;DHT22;8716;52.268;20.968;2023-05-01T14:06:19;20.00;47.50
17200;DHT22;8716;52.268;20.968;2023-05-01T14:08:48;19.90;47.00
17200;DHT22;8716;52.268;20.968;2023-05-01T14:11:17;19.90;47.20
17200;DHT22;8716;52.268;20.968;2023-05-01T14:13:49;19.90;47.40
17200;DHT22;8716;52.268;20.968;2023-05-01T14:16:24;19.90;46.80
17200;DHT22;8716;52.268;20.968;2023-05-01T14:18:53;19.90;46.90
17200;DHT22;8716;52.268;20.968;2023-05-01T14:21:24;20.00;47.80
17200;DHT22;8716;52.268;20.968;2023-05-01T14:23:55;20.00;47.30
17200;DHT22;8716;52.268;20.968;2023-05-01T14:26:26;20.00;47.60
17200;DHT22;8716;52.268;20.968;2023-05-01T14:28:54;20.10;48.00
17200;DHT22;8716;52.268;20.968;2023-05-01T14:31:28;20.20;48.10
17200;DHT22;8716;52.268;20.968;2023-05-01T14:33:57;20.30;48.30
17200;DHT22;8716;52.268;20.968;2023-05-01T14:36:27;20.40;48.10
17200;DHT22;8716;52.268;20.968;2023-05-01T14:38:57;20.40;48.10
17200;DHT22;8716;52.268;20.968;2023-05-01T14:41:26;20.40;47.80
17200;DHT22;8716;52.268;20.968;2023-05-01T14:43:55;20.40;48.40
17200;DHT22;8716;52.268;20.968;2023-05-01T14:46:29;20.40;48.20
17200;DHT22;8716;52.268;20.968;2023-05-01T14:48:59;20.30;48.30
17200;DHT22;8716;52.268;20.968;2023-05-01T14:51:28;20.20;48.50
17200;DHT22;8716;52.268;20.968;2023-05-01T14:53:57;20.20;49.10
17200;DHT22;8716;52.268;20.968;2023-05-01T14:56:25;20.10;48.50
17200;DHT22;8716;52.268;20.968;2023-05-01T14:58:55;20.00;47.60
17200;DHT22;8716;52.268;20.968;2023-05-01T15:01:24;20.00;48.50
17200;DHT22;8716;52.268;20.968;2023-05-01T15:03:54;20.00;48.10
17200;DHT22;8716;52.268;20.968;2023-05-01T15:06:22;20.00;47.60
17200;DHT22;8716;52.268;20.968;2023-05-01T15:08:51;19.90;47.90
17200;DHT22;8716;52.268;20.968;2023-05-01T15:11:19;19.70;48.10
17200;DHT22;8716;52.268;20.968;2023-05-01T15:13:48;19.70;49.50
17200;DHT22;8716;52.268;20.968;2023-05-01T15:16:16;19.80;50.40
17200;DHT22;8716;52.268;20.968;2023-05-01T15:18:45;19.90;50.50
17200;DHT22;8716;52.268;20.968;2023-05-01T15:21:14;19.80;48.80
17200;DHT22;8716;52.268;20.968;2023-05-01T15:23:42;19.80;49.20
17200;DHT22;8716;52.268;20.968;2023-05-01T15:26:12;19.70;48.80
17200;DHT22;8716;52.268;20.968;2023-05-01T15:28:40;19.70;51.10
17200;DHT22;8716;52.268;20.968;2023-05-01T15:31:09;19.80;52.40
17200;DHT22;8716;52.268;20.968;2023-05-01T15:33:37;19.80;52.70
17200;DHT22;8716;52.268;20.968;2023-05-01T15:36:08;19.70;52.80
17200;DHT22;8716;52.268;20.968;2023-05-01T15:38:37;19.70;53.00
17200;DHT22;8716;52.268;20.968;2023-05-01T15:41:06;19.70;52.90
17200;DHT22;8716;52.268;20.968;2023-05-01T15:43:34;19.70;53.10
17200;DHT22;8716;52.268;20.968;2023-05-01T15:46:02;19.80;52.30
17200;DHT22;8716;52.268;20.968;2023-05-01T15:48:32;19.80;52.90
17200;DHT22;8716;52.268;20.968;2023-05-01T15:51:00;19.90;53.20
17200;DHT22;8716;52.268;20.968;2023-05-01T15:53:30;19.80;53.30
17200;DHT22;8716;52.268;20.968;2023-05-01T15:55:59;19.80;53.30
17200;DHT22;8716;52.268;20.968;2023-05-01T15:58:28;19.80;53.20
17200;DHT22;8716;52.268;20.968;2023-05-01T16:00:57;19.80;53.40
17200;DHT22;8716;52.268;20.968;2023-05-01T16:03:25;19.60;53.10
17200;DHT22;8716;52.268;20.968;2023-05-01T16:05:54;19.50;53.50